Time;durP1;ratioP1;P1;durP2;ratioP2;P2;SDS_P1;SDS_P2;PMS_P1;PMS_P2;Temp;Humidity;BMP_temperature;BMP_pressure;BME280_temperature;BME280_humidity;BME280_pressure;Samples;Min_cycle;Max_cycle;Signal;HPM_P1;HPM_P2
2022/08/26 00:02:24;;;;;;;22.55;12.93;;;19.60;98.60;;;;;;5117956;28;20199;-84
2022/08/26 00:04:55;;;;;;;21.15;12.60;;;19.60;98.90;;;;;;5119364;28;20196;-84
2022/08/26 00:07:26;;;;;;;14.88;13.27;;;19.60;98.70;;;;;;5116258;28;20192;-84
2022/08/26 00:09:53;;;;;;;18.38;13.40;;;19.60;98.50;;;;;;5110150;28;20205;-84
2022/08/26 00:12:22;;;;;;;17.15;14.10;;;19.50;98.70;;;;;;5105637;28;20192;-84
2022/08/26 00:14:49;;;;;;;17.42;12.40;;;19.50;99.10;;;;;;5108583;28;20218;-85
2022/08/26 00:17:25;;;;;;;19.90;13.15;;;19.50;99.00;;;;;;5115572;28;20212;-85
2022/08/26 00:19:51;;;;;;;19.02;13.05;;;19.40;99.10;;;;;;5117397;28;20540;-85
2022/08/26 00:22:18;;;;;;;20.73;14.38;;;19.30;99.50;;;;;;5110018;28;20291;-85
2022/08/26 00:24:46;;;;;;;17.90;13.82;;;19.20;99.90;;;;;;5109854;28;20287;-85
2022/08/26 00:27:19;;;;;;;20.67;13.52;;;19.30;99.90;;;;;;5119014;28;20267;-84
2022/08/26 00:29:49;;;;;;;21.48;14.55;;;19.30;99.90;;;;;;5123019;28;20200;-85
2022/08/26 00:32:19;;;;;;;20.98;14.07;;;19.20;99.90;;;;;;5116881;28;20196;-85
2022/08/26 00:34:45;;;;;;;19.63;13.38;;;19.20;99.90;;;;;;5117819;28;20200;-85
2022/08/26 00:37:13;;;;;;;21.50;14.13;;;19.10;99.90;;;;;;5114454;28;20204;-85
2022/08/26 00:39:51;;;;;;;19.08;14.60;;;19.10;99.90;;;;;;5114397;28;20203;-85
2022/08/26 00:42:19;;;;;;;18.08;14.80;;;19.00;99.90;;;;;;5109044;28;20621;-85
2022/08/26 00:44:48;;;;;;;20.85;14.10;;;19.00;99.90;;;;;;5102715;28;20226;-85
2022/08/26 00:47:24;;;;;;;20.38;14.45;;;19.00;99.90;;;;;;5115705;28;20196;-85
2022/08/26 00:49:56;;;;;;;16.52;14.73;;;19.00;99.90;;;;;;5104229;28;20200;-85
2022/08/26 00:52:25;;;;;;;17.90;13.20;;;19.10;99.90;;;;;;5114013;28;20265;-85
2022/08/26 00:55:02;;;;;;;17.80;13.15;;;19.10;99.90;;;;;;5113406;28;20204;-85
2022/08/26 00:57:31;;;;;;;22.92;13.60;;;19.20;99.90;;;;;;5112323;28;20218;-85
2022/08/26 01:00:00;;;;;;;18.45;13.52;;;19.10;99.90;;;;;;5105851;28;20278;-85
2022/08/26 01:02:27;;;;;;;17.92;14.02;;;19.00;99.90;;;;;;5116137;28;20200;-85
2022/08/26 01:04:57;;;;;;;18.75;14.15;;;19.00;99.90;;;;;;5115570;28;20288;-85
2022/08/26 01:07:25;;;;;;;18.17;14.40;;;19.00;99.90;;;;;;5103261;28;20207;-85
2022/08/26 01:09:54;;;;;;;22.25;14.13;;;19.00;99.90;;;;;;5112239;28;20282;-85
2022/08/26 01:12:27;;;;;;;17.50;14.40;;;18.90;99.90;;;;;;5108176;28;20226;-85
2022/08/26 01:15:01;;;;;;;19.95;14.50;;;18.90;99.90;;;;;;5108739;28;20200;-85
2022/08/26 01:17:28;;;;;;;15.63;13.65;;;18.90;99.90;;;;;;5119002;28;20203;-84
2022/08/26 01:20:07;;;;;;;21.13;14.38;;;18.80;99.90;;;;;;5121530;28;20222;-85
2022/08/26 01:22:49;;;;;;;15.52;13.50;;;18.80;99.90;;;;;;5117778;28;20203;-85
2022/08/26 01:25:18;;;;;;;19.35;13.85;;;18.90;99.90;;;;;;5113868;28;20204;-85
2022/08/26 01:27:45;;;;;;;20.52;13.48;;;18.80;99.90;;;;;;5115874;28;20210;-85
2022/08/26 01:30:13;;;;;;;18.75;14.40;;;18.80;99.90;;;;;;5115212;28;20207;-85
2022/08/26 01:32:41;;;;;;;19.95;14.93;;;18.80;99.90;;;;;;5117876;28;20211;-85
2022/08/26 01:35:09;;;;;;;17.25;14.48;;;18.70;99.90;;;;;;5117820;28;20204;-85
2022/08/26 01:37:38;;;;;;;21.55;14.02;;;18.80;99.90;;;;;;5110549;28;20200;-85
2022/08/26 01:40:13;;;;;;;17.77;14.23;;;18.80;99.90;;;;;;5110502;28;20200;-85
2022/08/26 01:42:42;;;;;;;19.23;14.23;;;18.70;99.90;;;;;;5110564;28;20199;-84
2022/08/26 01:45:14;;;;;;;18.85;15.00;;;18.70;99.90;;;;;;5108413;28;20252;-85
2022/08/26 01:47:42;;;;;;;17.92;14.85;;;18.70;99.90;;;;;;5115927;28;20206;-85
2022/08/26 01:50:20;;;;;;;16.17;14.05;;;18.70;99.90;;;;;;5104290;28;20201;-85
2022/08/26 01:52:48;;;;;;;16.23;13.45;;;18.80;99.90;;;;;;5109115;28;20196;-85
2022/08/26 01:55:21;;;;;;;21.38;14.57;;;18.80;99.90;;;;;;5108000;28;20210;-87
2022/08/26 01:57:51;;;;;;;19.23;14.05;;;18.80;99.90;;;;;;5099762;28;20200;-88
2022/08/26 02:00:18;;;;;;;22.55;14.52;;;18.70;99.90;;;;;;5102385;28;20573;-87
2022/08/26 02:03:15;;;;;;;16.70;14.40;;;18.70;99.90;;;;;;5108665;28;20287;-84
2022/08/26 02:05:40;;;;;;;19.73;14.02;;;18.70;99.90;;;;;;5095764;28;20197;-85
2022/08/26 02:08:07;;;;;;;20.67;14.48;;;18.70;99.90;;;;;;5102105;28;20195;-85
2022/08/26 02:10:35;;;;;;;20.88;14.65;;;18.90;99.90;;;;;;5114747;28;20669;-85
2022/08/26 02:13:02;;;;;;;17.33;13.82;;;18.80;99.90;;;;;;5113812;28;20196;-85
2022/08/26 02:15:29;;;;;;;15.45;13.73;;;18.80;99.90;;;;;;5116487;28;20200;-85
2022/08/26 02:17:56;;;;;;;18.20;14.00;;;18.80;99.90;;;;;;5102755;28;20192;-85
2022/08/26 02:20:25;;;;;;;18.70;14.02;;;18.90;99.90;;;;;;5115849;28;20274;-84
2022/08/26 02:22:51;;;;;;;18.55;13.48;;;18.80;99.90;;;;;;5103852;28;20291;-85
2022/08/26 02:25:24;;;;;;;16.92;14.23;;;18.80;99.90;;;;;;5111075;28;20283;-85
2022/08/26 02:27:55;;;;;;;18.67;14.13;;;18.80;99.90;;;;;;5113368;28;20210;-85
2022/08/26 02:30:25;;;;;;;17.10;14.05;;;18.90;99.90;;;;;;5114080;28;20200;-85
2022/08/26 02:32:52;;;;;;;17.63;14.25;;;18.80;99.90;;;;;;5112837;28;20314;-84
2022/08/26 02:35:21;;;;;;;19.15;15.13;;;18.70;99.90;;;;;;5110086;28;20203;-85
2022/08/26 02:37:48;;;;;;;19.15;14.77;;;18.70;99.90;;;;;;5115127;28;20200;-85
2022/08/26 02:40:20;;;;;;;19.30;15.10;;;18.70;99.90;;;;;;5113880;28;20656;-85
2022/08/26 02:42:49;;;;;;;19.65;14.85;;;18.60;99.90;;;;;;5112718;28;20200;-87
2022/08/26 02:45:17;;;;;;;19.27;15.23;;;18.50;99.90;;;;;;5109874;28;20234;-88
2022/08/26 02:47:50;;;;;;;20.52;14.32;;;18.40;99.90;;;;;;5110115;28;20694;-88
2022/08/26 02:50:17;;;;;;;19.90;14.55;;;18.40;99.90;;;;;;5110776;28;20200;-87
2022/08/26 02:52:44;;;;;;;18.25;14.85;;;18.50;99.90;;;;;;5110411;28;20223;-88
2022/08/26 02:55:10;;;;;;;20.95;15.10;;;18.50;99.90;;;;;;5112541;28;20199;-87
2022/08/26 02:57:37;;;;;;;20.60;15.50;;;18.50;99.90;;;;;;5112256;28;20202;-87
2022/08/26 03:00:08;;;;;;;21.48;15.85;;;18.40;99.90;;;;;;5113333;28;20204;-88
2022/08/26 03:02:36;;;;;;;20.08;15.98;;;18.40;99.90;;;;;;5111286;28;20200;-88
2022/08/26 03:05:04;;;;;;;20.95;15.43;;;18.40;99.90;;;;;;5112178;28;20192;-88
2022/08/26 03:07:31;;;;;;;19.70;15.10;;;18.60;99.90;;;;;;5111048;28;20207;-87
2022/08/26 03:09:59;;;;;;;17.17;14.82;;;18.60;99.90;;;;;;5113321;28;20207;-88
2022/08/26 03:12:26;;;;;;;18.70;14.15;;;18.60;99.90;;;;;;5112318;28;20230;-87
2022/08/26 03:14:53;;;;;;;18.80;15.32;;;18.60;99.90;;;;;;5110313;28;20677;-88
2022/08/26 03:17:20;;;;;;;21.63;14.40;;;18.60;99.90;;;;;;5112092;28;20282;-88
2022/08/26 03:19:48;;;;;;;19.15;15.43;;;18.60;99.90;;;;;;5109505;28;20200;-87
2022/08/26 03:22:15;;;;;;;17.30;14.23;;;18.50;99.90;;;;;;5111555;28;20203;-87
2022/08/26 03:24:42;;;;;;;18.73;14.82;;;18.50;99.90;;;;;;5112090;28;20211;-88
2022/08/26 03:27:08;;;;;;;18.27;14.40;;;18.60;99.90;;;;;;5107699;28;20204;-87
2022/08/26 03:32:19;;;;;;;16.65;13.85;;;18.50;99.90;;;;;;5102751;28;20215;-88
2022/08/26 03:34:48;;;;;;;19.42;14.20;;;18.50;99.90;;;;;;5099288;28;20301;-88
2022/08/26 03:37:14;;;;;;;20.38;14.45;;;18.50;99.90;;;;;;5092190;28;20215;-87
2022/08/26 03:39:41;;;;;;;20.70;14.93;;;18.50;99.90;;;;;;5098441;28;20200;-88
2022/08/26 03:42:08;;;;;;;20.75;15.25;;;18.40;99.90;;;;;;5099572;28;20572;-88
2022/08/26 03:44:36;;;;;;;18.98;15.05;;;18.20;99.90;;;;;;5096860;28;20222;-87
2022/08/26 03:47:06;;;;;;;23.67;16.00;;;18.10;99.90;;;;;;5106453;28;20208;-88
2022/08/26 03:49:34;;;;;;;19.35;16.02;;;18.00;99.90;;;;;;5103221;28;20196;-87
2022/08/26 03:52:04;;;;;;;20.77;15.45;;;17.90;99.90;;;;;;5100368;28;20708;-88
2022/08/26 03:54:31;;;;;;;19.92;15.95;;;17.90;99.90;;;;;;5096869;28;20208;-88
2022/08/26 03:56:58;;;;;;;20.20;16.08;;;17.80;99.90;;;;;;5099399;28;20210;-88
2022/08/26 03:59:25;;;;;;;22.50;15.00;;;17.80;99.90;;;;;;5096835;28;20200;-87
2022/08/26 04:01:52;;;;;;;18.23;15.65;;;17.80;99.90;;;;;;5098464;28;20211;-88
2022/08/26 04:04:19;;;;;;;21.45;15.27;;;18.00;99.90;;;;;;5098493;28;20201;-87
2022/08/26 04:06:46;;;;;;;21.33;15.00;;;18.00;99.90;;;;;;5106283;28;20256;-87
2022/08/26 04:09:18;;;;;;;19.90;15.18;;;18.10;99.90;;;;;;5109943;28;20208;-88
2022/08/26 04:11:45;;;;;;;20.52;15.27;;;18.00;99.90;;;;;;5113658;28;20219;-87
2022/08/26 04:14:14;;;;;;;17.98;14.45;;;17.90;99.90;;;;;;5115793;28;20215;-88
2022/08/26 04:16:41;;;;;;;16.45;13.88;;;18.00;99.90;;;;;;5113705;28;20211;-87
2022/08/26 04:19:09;;;;;;;21.05;14.02;;;18.00;99.90;;;;;;5115462;28;20678;-87
2022/08/26 04:21:37;;;;;;;20.42;13.45;;;18.10;99.90;;;;;;5112682;28;20199;-88
2022/08/26 04:24:04;;;;;;;19.50;13.98;;;18.00;99.90;;;;;;5105109;28;20211;-88
2022/08/26 04:26:36;;;;;;;22.02;14.40;;;17.90;99.90;;;;;;5103797;28;20206;-87
2022/08/26 04:29:04;;;;;;;21.73;14.55;;;17.80;99.90;;;;;;5104912;28;20200;-87
2022/08/26 04:31:37;;;;;;;17.88;13.80;;;17.70;99.90;;;;;;5114542;28;20219;-87
2022/08/26 04:34:05;;;;;;;16.65;12.50;;;17.80;99.90;;;;;;5114906;28;20584;-87
2022/08/26 04:36:32;;;;;;;20.13;13.55;;;17.90;99.90;;;;;;5102973;28;20239;-87
2022/08/26 04:39:01;;;;;;;17.70;13.95;;;18.10;99.90;;;;;;5101161;28;20200;-87
2022/08/26 04:41:29;;;;;;;16.85;12.80;;;18.10;99.90;;;;;;5115636;27;20208;-88
2022/08/26 04:43:57;;;;;;;15.55;12.95;;;18.20;99.90;;;;;;5115128;28;20592;-87
2022/08/26 04:46:25;;;;;;;15.50;12.38;;;18.30;99.90;;;;;;5115285;28;20651;-87
2022/08/26 04:48:53;;;;;;;15.57;12.50;;;18.20;99.90;;;;;;5113607;28;20201;-87
2022/08/26 04:51:26;;;;;;;14.85;12.38;;;18.30;99.90;;;;;;5114060;28;20504;-87
2022/08/26 04:53:53;;;;;;;18.52;12.45;;;18.40;99.90;;;;;;5113535;28;20231;-88
2022/08/26 04:56:20;;;;;;;15.55;11.80;;;18.40;99.90;;;;;;5115233;28;20200;-88
2022/08/26 04:58:48;;;;;;;19.02;11.80;;;18.50;99.90;;;;;;5111453;28;20574;-88
2022/08/26 05:01:17;;;;;;;17.55;12.07;;;18.50;99.90;;;;;;5113318;28;20627;-87
2022/08/26 05:03:44;;;;;;;15.80;11.85;;;18.50;99.90;;;;;;5114861;28;20200;-87
2022/08/26 05:06:11;;;;;;;16.33;11.90;;;18.50;99.90;;;;;;5112945;28;20200;-87
2022/08/26 05:08:40;;;;;;;20.90;12.95;;;18.40;99.90;;;;;;5113551;28;20298;-88
2022/08/26 05:11:07;;;;;;;18.25;11.90;;;18.40;99.90;;;;;;5111237;28;20196;-88
2022/08/26 05:13:35;;;;;;;13.15;11.18;;;18.30;99.90;;;;;;5112864;28;20211;-87
2022/08/26 05:16:04;;;;;;;12.15;10.75;;;18.30;99.90;;;;;;5112857;28;20204;-88
2022/08/26 05:18:34;;;;;;;14.68;11.43;;;18.30;99.90;;;;;;5114930;28;20253;-88
2022/08/26 05:21:02;;;;;;;12.90;11.20;;;18.30;99.90;;;;;;5114398;28;20211;-88
2022/08/26 05:23:30;;;;;;;15.60;11.10;;;18.20;99.90;;;;;;5110990;27;20200;-87
2022/08/26 05:25:59;;;;;;;17.73;10.05;;;18.30;99.90;;;;;;5094250;28;20206;-87
2022/08/26 05:28:27;;;;;;;14.38;11.02;;;18.40;99.80;;;;;;5107800;28;20211;-87
2022/08/26 05:30:55;;;;;;;15.20;10.32;;;18.50;99.40;;;;;;5113577;28;20202;-87
2022/08/26 05:33:22;;;;;;;15.30;10.88;;;18.50;99.40;;;;;;5112303;28;20224;-87
2022/08/26 05:35:51;;;;;;;11.63;10.32;;;18.50;99.60;;;;;;5112191;28;20200;-88
2022/08/26 05:38:21;;;;;;;13.20;9.73;;;18.70;99.20;;;;;;5113971;28;20196;-88
2022/08/26 05:40:51;;;;;;;11.23;9.93;;;18.80;98.20;;;;;;5112860;28;20678;-87
2022/08/26 05:43:18;;;;;;;11.05;9.95;;;18.90;97.90;;;;;;5102325;28;20643;-87
2022/08/26 05:45:47;;;;;;;14.50;10.38;;;18.90;97.90;;;;;;5098026;28;20208;-87
2022/08/26 05:48:14;;;;;;;12.88;10.45;;;18.90;97.80;;;;;;5110067;28;20558;-85
2022/08/26 05:50:44;;;;;;;12.27;9.90;;;19.00;97.80;;;;;;5095977;28;20201;-85
2022/08/26 05:53:14;;;;;;;11.75;10.10;;;19.10;97.90;;;;;;5105602;28;20220;-85
2022/08/26 05:55:44;;;;;;;10.45;9.38;;;19.00;97.80;;;;;;5106342;28;20200;-85
2022/08/26 05:58:12;;;;;;;11.07;9.82;;;19.00;97.20;;;;;;5102859;28;20204;-84
2022/08/26 06:00:40;;;;;;;12.98;10.38;;;19.10;97.00;;;;;;5106290;28;20210;-85
2022/08/26 06:03:07;;;;;;;12.95;9.65;;;19.20;97.20;;;;;;5104349;28;20216;-84
2022/08/26 06:05:38;;;;;;;11.15;9.35;;;19.30;96.90;;;;;;5116257;28;20224;-84
2022/08/26 06:08:12;;;;;;;13.65;9.63;;;19.50;96.10;;;;;;5103831;28;20246;-85
2022/08/26 06:10:45;;;;;;;14.18;9.70;;;19.60;95.50;;;;;;5106596;28;20199;-85
2022/08/26 06:13:12;;;;;;;13.63;9.30;;;19.70;95.60;;;;;;5102207;28;20221;-85
2022/08/26 06:15:45;;;;;;;13.75;9.05;;;19.80;95.30;;;;;;5106809;27;20210;-85
2022/08/26 06:18:14;;;;;;;11.60;9.20;;;20.00;94.90;;;;;;5108026;28;20211;-84
2022/08/26 06:20:43;;;;;;;13.02;9.32;;;20.40;94.40;;;;;;5104618;28;20203;-85
2022/08/26 06:25:57;;;;;;;10.68;8.98;;;20.80;92.20;;;;;;5097620;28;20223;-85
2022/08/26 06:28:25;;;;;;;17.38;9.43;;;21.10;91.90;;;;;;5111923;28;20192;-85
2022/08/26 06:30:54;;;;;;;11.35;8.98;;;21.40;91.20;;;;;;5107386;28;20621;-85
2022/08/26 06:33:21;;;;;;;13.43;8.88;;;21.50;91.10;;;;;;5096036;28;20216;-85
2022/08/26 06:35:49;;;;;;;15.32;9.32;;;21.70;90.50;;;;;;5095523;28;20208;-85
2022/08/26 06:38:16;;;;;;;10.70;8.63;;;21.90;89.40;;;;;;5105749;28;20200;-85
2022/08/26 06:40:44;;;;;;;14.85;9.25;;;22.00;88.00;;;;;;5110663;28;20216;-85
2022/08/26 06:43:16;;;;;;;12.18;8.73;;;22.10;86.70;;;;;;5095713;28;20201;-85
2022/08/26 06:45:44;;;;;;;8.70;7.82;;;22.10;85.00;;;;;;5110079;28;20467;-85
2022/08/26 06:48:12;;;;;;;12.88;8.30;;;22.20;82.40;;;;;;5105100;28;20566;-85
2022/08/26 06:50:39;;;;;;;8.95;7.20;;;22.30;82.40;;;;;;5108921;28;20188;-85
2022/08/26 06:53:07;;;;;;;12.45;7.65;;;22.50;81.50;;;;;;5098115;28;20302;-82
2022/08/26 06:55:39;;;;;;;7.80;6.80;;;22.90;76.30;;;;;;5114334;28;20199;-82
2022/08/26 06:58:06;;;;;;;7.40;6.70;;;23.10;71.10;;;;;;5112706;28;20191;-82
2022/08/26 07:00:34;;;;;;;7.53;6.45;;;23.40;66.90;;;;;;5118329;28;20273;-82
2022/08/26 07:03:07;;;;;;;12.73;7.38;;;23.40;61.90;;;;;;5101713;28;20287;-82
2022/08/26 07:05:34;;;;;;;9.18;7.00;;;23.40;59.00;;;;;;5107956;28;20626;-82
2022/08/26 07:08:02;;;;;;;9.80;6.97;;;23.50;59.10;;;;;;5105947;28;20542;-83
2022/08/26 07:10:31;;;;;;;10.85;7.03;;;23.60;60.10;;;;;;5105258;28;20556;-83
2022/08/26 07:12:58;;;;;;;9.20;7.57;;;23.50;66.00;;;;;;5101553;28;20223;-82
2022/08/26 07:15:25;;;;;;;8.48;7.00;;;23.50;60.30;;;;;;5098382;28;20682;-82
2022/08/26 07:17:53;;;;;;;10.40;7.53;;;23.70;62.30;;;;;;5110222;28;20193;-82
2022/08/26 07:20:20;;;;;;;9.70;7.93;;;23.90;59.50;;;;;;5106032;28;20585;-80
2022/08/26 07:22:46;;;;;;;10.77;7.95;;;24.00;59.60;;;;;;5107535;28;20212;-80
2022/08/26 07:25:13;;;;;;;10.40;7.40;;;24.20;56.00;;;;;;5109351;28;20291;-80
2022/08/26 07:27:40;;;;;;;12.52;8.25;;;24.40;57.60;;;;;;5102220;28;20202;-80
2022/08/26 07:30:08;;;;;;;9.75;7.72;;;24.30;59.20;;;;;;5111865;28;20195;-80
2022/08/26 07:32:37;;;;;;;11.35;7.85;;;24.30;58.30;;;;;;5104793;28;20208;-81
2022/08/26 07:35:06;;;;;;;10.25;7.90;;;24.20;58.50;;;;;;5106957;28;20215;-82
2022/08/26 07:37:33;;;;;;;13.10;8.57;;;24.40;58.30;;;;;;5103657;28;20195;-82
2022/08/26 07:40:00;;;;;;;13.00;8.35;;;24.50;55.60;;;;;;5116369;28;20310;-82
2022/08/26 07:42:27;;;;;;;13.38;7.95;;;24.60;56.20;;;;;;5109825;28;20679;-82
2022/08/26 07:44:54;;;;;;;14.95;8.82;;;24.50;58.40;;;;;;5108515;28;20228;-82
2022/08/26 07:47:21;;;;;;;14.35;8.27;;;24.70;55.00;;;;;;5116045;28;20192;-82
2022/08/26 07:49:49;;;;;;;13.85;9.20;;;24.70;52.50;;;;;;5115588;28;20678;-83
2022/08/26 07:52:20;;;;;;;16.98;8.15;;;24.50;56.70;;;;;;5107271;28;20199;-82
2022/08/26 07:54:47;;;;;;;12.10;8.15;;;24.30;57.20;;;;;;5123105;28;20196;-82
2022/08/26 07:57:14;;;;;;;12.45;7.88;;;24.40;56.60;;;;;;5122641;28;20261;-81
2022/08/26 07:59:41;;;;;;;10.02;7.72;;;24.40;56.90;;;;;;5122599;28;20199;-82
2022/08/26 08:02:13;;;;;;;10.73;8.18;;;24.30;61.30;;;;;;5121711;28;20737;-81
2022/08/26 08:04:50;;;;;;;11.00;7.60;;;24.20;57.00;;;;;;5119866;28;20194;-81
2022/08/26 08:07:28;;;;;;;11.65;6.38;;;24.10;59.20;;;;;;5105139;28;20261;-81
2022/08/26 08:09:54;;;;;;;10.65;7.00;;;24.20;57.60;;;;;;5115570;28;20204;-81
2022/08/26 08:12:21;;;;;;;9.00;6.95;;;24.10;56.70;;;;;;5116317;28;20239;-82
2022/08/26 08:14:50;;;;;;;8.05;6.68;;;24.30;55.10;;;;;;5122672;28;20196;-81
2022/08/26 08:17:16;;;;;;;7.72;6.93;;;24.40;53.00;;;;;;5125328;28;20200;-81
2022/08/26 08:19:43;;;;;;;8.43;7.53;;;24.50;51.10;;;;;;5120953;28;20196;-81
2022/08/26 08:22:22;;;;;;;8.85;6.55;;;24.60;51.70;;;;;;5113742;28;20201;-81
2022/08/26 08:24:50;;;;;;;12.55;7.40;;;24.50;49.10;;;;;;5114380;28;20204;-81
2022/08/26 08:27:17;;;;;;;9.57;6.95;;;24.70;48.50;;;;;;5115401;28;20192;-82
2022/08/26 08:29:45;;;;;;;9.25;7.22;;;24.60;48.40;;;;;;5110443;28;20678;-81
2022/08/26 08:32:13;;;;;;;9.75;7.30;;;24.40;50.20;;;;;;5109817;28;20197;-81
2022/08/26 08:34:40;;;;;;;9.25;6.97;;;24.40;52.30;;;;;;5117985;28;20292;-81
2022/08/26 08:37:07;;;;;;;11.18;7.00;;;24.30;51.80;;;;;;5105931;28;20204;-81
2022/08/26 08:39:34;;;;;;;11.35;7.15;;;24.10;52.60;;;;;;5109447;28;20586;-81
2022/08/26 08:42:24;;;;;;;9.40;7.03;;;24.30;53.90;;;;;;5112908;28;20627;-81
2022/08/26 08:44:52;;;;;;;8.98;7.57;;;24.20;52.80;;;;;;5106222;28;20252;-81
2022/08/26 08:47:27;;;;;;;10.70;7.13;;;24.10;52.50;;;;;;5113327;28;20196;-82
2022/08/26 08:50:03;;;;;;;13.70;7.30;;;24.00;55.90;;;;;;5114030;28;20207;-81
2022/08/26 08:52:34;;;;;;;10.85;7.50;;;24.10;52.80;;;;;;5105763;28;20192;-81
2022/08/26 08:55:01;;;;;;;8.65;6.63;;;24.10;53.30;;;;;;5117654;28;20200;-81
2022/08/26 08:57:39;;;;;;;13.38;7.35;;;24.30;51.50;;;;;;5112352;28;20192;-82
2022/08/26 09:00:12;;;;;;;9.57;6.47;;;24.30;51.40;;;;;;5111217;28;20196;-82
2022/08/26 09:02:54;;;;;;;10.95;6.70;;;24.20;53.20;;;;;;5107939;28;20674;-82
2022/08/26 09:05:33;;;;;;;13.18;6.82;;;24.40;49.50;;;;;;5108963;28;20572;-82
2022/08/26 09:08:03;;;;;;;14.27;7.63;;;24.40;49.50;;;;;;5103482;28;20196;-80
2022/08/26 09:10:35;;;;;;;11.75;7.28;;;24.30;47.70;;;;;;5101943;28;20669;-82
2022/08/26 09:13:09;;;;;;;9.85;6.72;;;24.30;49.70;;;;;;5105002;28;20200;-82
2022/08/26 09:15:48;;;;;;;8.68;7.18;;;24.30;48.50;;;;;;5109507;28;20277;-82
2022/08/26 09:18:31;;;;;;;11.70;7.22;;;24.40;50.00;;;;;;5108872;28;20230;-83
2022/08/26 09:21:08;;;;;;;9.95;6.88;;;24.50;48.60;;;;;;5111078;28;20216;-83
2022/08/26 09:23:39;;;;;;;10.50;7.07;;;24.40;48.00;;;;;;5118823;28;20210;-83
2022/08/26 09:26:15;;;;;;;8.73;6.85;;;24.40;48.40;;;;;;5107158;28;20201;-85
2022/08/26 09:28:47;;;;;;;10.15;6.75;;;24.60;48.00;;;;;;5114151;28;20200;-85
2022/08/26 09:31:20;;;;;;;11.25;7.35;;;24.80;48.20;;;;;;5112298;28;20204;-85
2022/08/26 09:33:48;;;;;;;7.75;6.05;;;24.70;46.20;;;;;;5110868;28;20577;-86
2022/08/26 09:36:21;;;;;;;8.20;7.05;;;25.00;47.00;;;;;;5112731;28;20211;-85
2022/08/26 09:38:49;;;;;;;9.70;7.43;;;25.50;41.60;;;;;;5111994;28;20211;-86
2022/08/26 09:41:24;;;;;;;15.18;7.20;;;26.10;39.40;;;;;;5119336;28;20290;-83
2022/08/26 09:44:14;;;;;;;14.65;7.90;;;26.40;37.10;;;;;;5116808;28;20219;-82
2022/08/26 09:46:45;;;;;;;11.05;7.35;;;26.30;36.00;;;;;;5109509;28;20266;-82
2022/08/26 09:49:32;;;;;;;13.02;8.25;;;26.40;37.10;;;;;;5110240;28;20547;-83
2022/08/26 09:52:25;;;;;;;10.30;7.63;;;26.10;36.60;;;;;;5115120;28;20196;-83
2022/08/26 09:55:03;;;;;;;13.60;7.65;;;26.10;36.90;;;;;;5098520;28;20220;-83
2022/08/26 09:57:33;;;;;;;11.60;7.03;;;26.10;36.90;;;;;;5116778;28;20190;-83
2022/08/26 10:00:02;;;;;;;12.07;7.72;;;26.50;37.20;;;;;;5116999;28;20195;-84
2022/08/26 10:02:40;;;;;;;19.65;14.90;;;27.10;37.10;;;;;;5107413;28;20717;-84
2022/08/26 10:05:10;;;;;;;15.95;11.57;;;27.80;30.30;;;;;;5108037;28;20203;-84
2022/08/26 10:07:44;;;;;;;13.95;9.18;;;28.80;26.90;;;;;;5105111;28;20573;-84
2022/08/26 10:10:15;;;;;;;12.13;7.55;;;29.40;23.80;;;;;;5112985;28;20210;-84
2022/08/26 10:12:58;;;;;;;14.30;8.43;;;30.10;22.60;;;;;;5107482;28;20191;-84
2022/08/26 10:15:41;;;;;;;13.00;8.65;;;30.70;19.20;;;;;;5107634;28;20587;-84
2022/08/26 10:18:13;;;;;;;9.77;7.40;;;30.60;18.80;;;;;;5112033;28;20209;-87
2022/08/26 10:20:49;;;;;;;17.00;12.77;;;30.60;18.30;;;;;;5110575;28;20214;-84
2022/08/26 10:23:28;;;;;;;13.10;7.75;;;31.80;19.00;;;;;;5103519;28;20202;-84
2022/08/26 10:26:08;;;;;;;12.23;8.43;;;32.60;15.80;;;;;;5123053;28;20231;-84
2022/08/26 10:29:00;;;;;;;10.73;7.35;;;33.30;15.70;;;;;;5115428;28;20203;-84
2022/08/26 10:31:36;;;;;;;10.15;7.82;;;34.30;12.90;;;;;;5106910;28;20260;-84
2022/08/26 10:34:03;;;;;;;13.77;7.90;;;34.40;13.10;;;;;;5119433;28;20229;-84
2022/08/26 10:36:51;;;;;;;16.23;10.73;;;34.70;11.60;;;;;;5122146;28;20286;-83
2022/08/26 10:39:26;;;;;;;14.85;10.02;;;34.90;12.50;;;;;;5112603;28;20651;-84
2022/08/26 10:41:59;;;;;;;13.60;7.72;;;34.40;13.30;;;;;;5116475;28;20205;-84
2022/08/26 10:44:52;;;;;;;11.40;8.90;;;34.20;11.80;;;;;;5100868;28;20219;-84
2022/08/26 10:47:25;;;;;;;8.80;7.82;;;33.50;16.10;;;;;;5115444;28;20285;-84
2022/08/26 10:49:53;;;;;;;14.77;8.10;;;32.80;15.70;;;;;;5111842;28;20218;-84
2022/08/26 10:52:27;;;;;;;12.40;7.15;;;32.70;16.10;;;;;;5114009;28;20212;-84
2022/08/26 10:55:11;;;;;;;11.85;7.75;;;32.30;15.60;;;;;;5120818;28;20237;-83
2022/08/26 10:57:46;;;;;;;12.52;7.55;;;32.00;17.60;;;;;;5113820;28;20204;-84
2022/08/26 11:03:13;;;;;;;16.77;7.85;;;31.50;18.40;;;;;;5119173;28;20194;-83
2022/08/26 11:05:39;;;;;;;13.43;7.68;;;33.00;18.10;;;;;;5114007;28;20646;-84
2022/08/26 11:08:28;;;;;;;14.23;8.30;;;32.30;16.90;;;;;;5096277;28;20195;-86
2022/08/26 11:10:57;;;;;;;11.60;7.40;;;31.80;19.90;;;;;;5094336;28;20598;-86
2022/08/26 11:13:56;;;;;;;10.55;6.93;;;31.40;18.40;;;;;;5097480;28;20572;-85
2022/08/26 11:16:33;;;;;;;12.65;7.25;;;30.80;17.80;;;;;;5102090;28;20193;-85
2022/08/26 11:19:01;;;;;;;10.07;7.10;;;30.20;19.70;;;;;;5109107;28;20252;-83
2022/08/26 11:21:51;;;;;;;14.07;7.78;;;29.60;21.90;;;;;;5106099;28;20215;-83
2022/08/26 11:24:54;;;;;;;17.30;7.68;;;29.30;22.20;;;;;;5106399;28;20209;-83
2022/08/26 11:28:06;;;;;;;15.15;6.97;;;29.20;22.70;;;;;;5061744;28;20285;-83
2022/08/26 11:30:43;;;;;;;11.68;7.47;;;29.90;20.20;;;;;;5051940;28;20206;-83
2022/08/26 11:33:31;;;;;;;14.68;7.35;;;30.20;22.60;;;;;;5062867;28;20196;-84
2022/08/26 11:35:59;;;;;;;11.32;6.70;;;30.40;20.80;;;;;;5048102;28;20197;-83
2022/08/26 11:38:30;;;;;;;13.18;8.23;;;30.50;21.30;;;;;;5053506;28;20201;-82
2022/08/26 11:41:07;;;;;;;11.15;6.53;;;30.10;20.00;;;;;;5052951;28;20226;-83
2022/08/26 11:43:34;;;;;;;14.48;6.70;;;29.70;20.30;;;;;;5060047;28;20674;-83
2022/08/26 11:46:05;;;;;;;14.60;6.80;;;29.60;20.00;;;;;;5058237;28;20197;-83
2022/08/26 11:48:35;;;;;;;10.57;5.85;;;30.20;19.80;;;;;;5051259;28;20201;-86
2022/08/26 11:51:20;;;;;;;12.18;5.43;;;30.10;19.80;;;;;;5053543;28;20328;-82
2022/08/26 11:53:50;;;;;;;12.40;5.93;;;30.20;19.60;;;;;;5059854;28;20235;-82
2022/08/26 11:56:24;;;;;;;10.10;6.10;;;30.10;19.80;;;;;;5061532;28;20201;-82
2022/08/26 11:59:07;;;;;;;11.02;6.53;;;30.10;19.60;;;;;;5054262;28;20219;-82
2022/08/26 12:01:36;;;;;;;12.38;6.60;;;30.20;20.50;;;;;;5060863;28;20197;-82
2022/08/26 12:04:04;;;;;;;10.30;6.10;;;30.50;19.90;;;;;;5069678;28;20207;-84
2022/08/26 12:06:36;;;;;;;10.20;5.60;;;30.80;17.50;;;;;;5111903;28;20191;-85
2022/08/26 12:09:08;;;;;;;11.98;5.40;;;30.80;19.30;;;;;;5105064;28;20216;-85
2022/08/26 12:11:37;;;;;;;9.93;5.47;;;30.60;17.90;;;;;;5111749;28;20214;-85
2022/08/26 12:14:06;;;;;;;10.82;6.18;;;30.70;17.70;;;;;;5104172;28;20571;-85
2022/08/26 12:16:36;;;;;;;15.30;6.10;;;30.70;18.50;;;;;;5100122;28;20278;-85
2022/08/26 12:19:23;;;;;;;11.25;5.90;;;30.70;18.90;;;;;;5109967;28;20202;-84
2022/08/26 12:22:02;;;;;;;13.07;6.40;;;30.30;20.20;;;;;;5103784;28;20206;-85
2022/08/26 12:24:29;;;;;;;10.25;5.82;;;29.80;20.10;;;;;;5095595;28;20665;-85
2022/08/26 12:27:15;;;;;;;11.68;6.03;;;29.60;21.20;;;;;;5111904;28;20217;-85
2022/08/26 12:29:42;;;;;;;10.82;5.55;;;29.60;20.90;;;;;;5115408;28;20200;-85
2022/08/26 12:32:12;;;;;;;9.95;5.80;;;29.40;21.20;;;;;;5111570;28;20211;-85
2022/08/26 12:34:40;;;;;;;8.82;5.70;;;29.60;20.10;;;;;;5113569;28;20227;-85
2022/08/26 12:37:15;;;;;;;11.70;6.05;;;29.50;20.00;;;;;;5104282;28;20210;-84
2022/08/26 12:39:44;;;;;;;9.68;6.03;;;29.70;20.00;;;;;;5110313;28;20295;-85
2022/08/26 12:42:38;;;;;;;8.77;5.93;;;29.80;22.10;;;;;;5105302;28;20196;-84
2022/08/26 12:45:07;;;;;;;7.95;5.50;;;29.60;21.10;;;;;;5116251;28;20230;-85
2022/08/26 12:47:37;;;;;;;9.13;5.32;;;29.50;20.70;;;;;;5102648;28;20670;-85
2022/08/26 12:50:06;;;;;;;12.88;5.70;;;29.60;20.60;;;;;;5113479;28;20287;-85
2022/08/26 12:52:50;;;;;;;13.20;5.70;;;29.40;21.40;;;;;;5101968;28;20203;-85
2022/08/26 12:55:22;;;;;;;11.10;5.75;;;29.60;21.60;;;;;;5114402;28;20218;-84
2022/08/26 12:57:50;;;;;;;11.57;5.82;;;29.70;20.20;;;;;;5100495;28;20203;-85
2022/08/26 13:00:32;;;;;;;9.95;5.85;;;29.60;22.40;;;;;;5103709;28;20204;-84
2022/08/26 13:03:00;;;;;;;12.95;6.45;;;29.90;20.20;;;;;;5097072;28;20206;-84